Throggs Neck, New York
Current Conditions -  °F | °C
As of 7:51 AM on Sunday 21 Dec 2014 (Local Time) from KLGA Reporting Station
Overcast Overcast  
Wind Chill: 26°   Ceiling: 1600
Heat Index: 32°   Visibility: 8mi
Dew Point: 25°   Wind: 6mph
Humidity: 75%   Direction: 350°N
Pressure: 30.31"   Gusts: NA
Location:  40.8263°N, 73.8227°W
Report Text: KLGA 211251Z 35005KT 8SM FEW011 BKN016 BKN024 OVC130 00/M04 A3031 RMK AO2 SLP262 VIRGA OHD AND ALQDS T00001039
Loading
Personal Weather Stations






























Interactive Weather Map New forecast layout! Learn more

10-Day Weather Forecast

Advertisements
Track Severe Weather on mobile